CAT,Max TemperatureF,Mean TemperatureF,Min TemperatureF,Max Dew PointF,MeanDew PointF,Min DewpointF,Max Humidity, Mean Humidity, Min Humidity, Max Sea Level PressureIn, Mean Sea Level PressureIn, Min Sea Level PressureIn, Max VisibilityMiles, Mean VisibilityMiles, Min VisibilityMiles, Max Wind SpeedMPH, Mean Wind SpeedMPH, Max Gust SpeedMPH,PrecipitationIn, CloudCover, Events, WindDirDegrees
2012-10-1,82,70,59,54,49,45,68,41,24,30.33,30.26,30.21,12,10,9,15,13,,0.00,,,144
2012-10-2,91,71,55,62,38,21,67,32,8,30.33,30.28,30.18,19,19,19,14,6,,0.00,,,144
2012-10-3,93,73,53,45,34,18,51,22,4,30.24,30.16,30.06,19,17,12,14,5,,0.00,,,143
2012-10-4,92,76,60,45,38,33,76,26,6,30.18,30.13,30.06,16,16,16,10,3,,0.00,,,220
2012-10-5,95,80,65,51,37,25,34,17,7,30.12,30.06,30.01,16,15,12,15,7,,0.00,,,142
2012-10-6,94,79,65,48,41,28,46,24,8,30.18,30.10,30.04,9,8,7,12,8,,0.00,,,151
2012-10-7,94,76,62,48,45,41,43,27,10,30.12,30.07,30.01,6,6,6,15,5,,0.00,,,84
2012-10-8,95,80,66,52,47,41,39,24,10,30.15,30.10,30.04,9,8,7,14,10,,0.00,,,108
2012-10-9,92,78,63,59,56,49,73,45,15,30.18,30.09,29.98,12,8,6,17,10,,0.00,3,Rain-Thunderstorm,107
2012-10-10,95,80,64,55,51,46,56,35,13,30.09,30.06,30.01,9,7,6,13,5,,0.00,5,Rain-Thunderstorm,96
2012-10-11,92,79,66,54,45,37,52,27,11,30.15,30.11,30.06,12,9,6,22,11,,0.00,3,,140
2012-10-12,90,76,61,55,49,41,77,41,19,30.24,30.17,30.09,12,9,6,17,12,,0.00,6,Rain,120
2012-10-13,87,68,50,59,55,50,88,59,20,30.24,30.16,30.04,19,8,6,17,14,,0.00,4,Rain-Thunderstorm,149
2012-10-14,87,74,60,57,55,54,82,52,30,30.21,30.13,30.06,16,8,6,22,13,,0.00,3,,160
2012-10-15,87,73,59,57,52,45,88,47,18,30.21,30.13,30.04,16,7,6,14,8,,0.00,4,,114
2012-10-16,90,75,63,57,55,53,72,49,27,30.15,30.10,30.04,16,8,6,16,5,,0.00,6,Rain-Thunderstorm,65
2012-10-17,77,70,64,61,57,55,73,61,47,30.15,30.09,30.04,16,9,6,20,8,,0.00,6,Rain,193
2012-10-18,92,76,60,56,48,45,77,33,13,30.06,29.96,29.89,16,8,6,14,6,,0.00,5,Thunderstorm,101
2012-10-19,97,82,66,59,45,39,54,28,8,30.06,29.93,29.86,12,8,6,17,8,,0.00,5,Rain-Thunderstorm,99
2012-10-20,91,78,66,63,52,46,69,39,14,30.09,30.02,29.98,12,7,6,10,7,,0.00,4,Rain-Thunderstorm,259
2012-10-21,77,70,63,61,58,54,88,70,45,30.18,30.13,30.09,12,8,6,16,14,,0.00,6,Rain-Thunderstorm,127
2012-10-22,89,66,64,61,59,58,83,77,67,30.12,30.11,30.09,12,12,12,7,4,,0.00,,Rain,94
2012-10-23,71,66,62,60,58,57,88,79,73,30.15,30.11,30.09,9,8,6,16,8,,0.00,6,Rain,140
2012-10-24,66,63,60,55,55,55,80,74,66,30.21,30.20,30.18,19,10,6,17,17,,0.00,6,,105
2012-10-25,59,59,57,54,54,54,88,85,82,30.21,30.21,30.21,6,6,6,17,17,,0.00,6,,135
2012-10-26,,,,,,,,,,,,,,,,,,,0.00,,,-1
2012-10-27,82,72,62,55,52,48,72,47,30,30.18,30.14,30.09,6,6,6,14,8,,0.00,6,Rain-Thunderstorm,161
2012-10-28,87,73,61,55,49,43,64,36,15,30.24,30.16,30.12,19,13,6,18,15,28,0.00,1,,100
2012-10-29,86,72,59,54,48,44,77,38,15,30.21,30.14,30.09,19,10,6,18,13,,0.00,1,,97
2012-10-30,91,75,59,52,43,37,72,29,10,30.09,29.99,29.89,19,19,19,10,7,,0.00,,,114
2012-10-31,89,76,64,57,52,46,68,43,16,30.01,29.96,29.92,19,10,6,17,12,,0.00,2,Rain-Thunderstorm,119